createdAt,value
2017-12-28T00:00:45.015Z,9.43
2017-12-28T00:03:10.775Z,8.83
2017-12-28T00:05:36.527Z,9.17
2017-12-28T00:08:02.598Z,8.67
2017-12-28T00:10:28.338Z,9.43
2017-12-28T00:12:54.098Z,8.80
2017-12-28T00:15:19.842Z,9.07
2017-12-28T00:17:45.630Z,9.00
2017-12-28T00:20:11.374Z,9.20
2017-12-28T00:22:37.230Z,9.10
2017-12-28T00:25:02.991Z,9.73
2017-12-28T00:27:28.782Z,9.10
2017-12-28T00:29:54.571Z,8.50
2017-12-28T00:32:20.310Z,8.70
2017-12-28T00:34:46.059Z,9.00
2017-12-28T00:37:11.795Z,9.30
2017-12-28T00:39:37.526Z,9.30
2017-12-28T00:42:03.287Z,9.33
2017-12-28T00:44:29.119Z,9.43
2017-12-28T00:46:54.875Z,10.40
2017-12-28T00:49:20.647Z,9.13
2017-12-28T00:51:46.383Z,9.13
2017-12-28T00:54:12.176Z,9.70
2017-12-28T00:56:37.939Z,9.23
2017-12-28T00:59:03.678Z,9.50
2017-12-28T01:01:29.405Z,9.83
2017-12-28T01:03:55.479Z,9.60
2017-12-28T01:06:21.239Z,10.48
2017-12-28T01:08:46.995Z,10.67
2017-12-28T01:11:12.730Z,10.37
2017-12-28T01:13:38.471Z,11.03
2017-12-28T01:16:04.226Z,11.27
2017-12-28T01:18:29.982Z,11.67
2017-12-28T01:20:55.730Z,10.90
2017-12-28T01:23:21.466Z,11.33
2017-12-28T01:25:47.218Z,11.40
2017-12-28T01:28:12.954Z,11.33
2017-12-28T01:30:38.706Z,10.90
2017-12-28T01:33:04.439Z,10.77
2017-12-28T01:35:30.174Z,10.70
2017-12-28T01:37:55.930Z,11.23
2017-12-28T01:40:21.674Z,11.60
2017-12-28T01:42:47.411Z,11.33
2017-12-28T01:45:13.189Z,10.83
2017-12-28T01:47:51.371Z,11.97
2017-12-28T01:50:17.134Z,11.07
2017-12-28T01:52:42.858Z,10.47
2017-12-28T01:55:08.599Z,10.50
2017-12-28T01:57:34.414Z,11.13
2017-12-28T02:00:00.523Z,11.33
2017-12-28T02:02:26.263Z,11.77
2017-12-28T02:04:52.016Z,11.73
2017-12-28T02:07:17.749Z,11.90
2017-12-28T02:09:43.475Z,11.37
2017-12-28T02:12:09.273Z,12.77
2017-12-28T02:14:35.014Z,12.50
2017-12-28T02:17:00.768Z,12.63
2017-12-28T02:19:26.770Z,11.70
2017-12-28T02:21:52.511Z,12.20
2017-12-28T02:24:18.238Z,12.07
2017-12-28T02:26:43.982Z,12.40
2017-12-28T02:29:09.719Z,12.97
2017-12-28T02:31:35.467Z,12.17
2017-12-28T02:34:01.204Z,13.70
2017-12-28T02:36:26.968Z,13.90
2017-12-28T02:38:52.714Z,14.20
2017-12-28T02:41:18.478Z,14.43
2017-12-28T02:43:44.231Z,14.33
2017-12-28T02:46:09.965Z,14.63
2017-12-28T02:48:35.729Z,14.67
2017-12-28T02:51:01.467Z,14.73
2017-12-28T02:53:27.211Z,13.80
2017-12-28T02:55:52.965Z,14.40
2017-12-28T02:58:18.714Z,13.63
2017-12-28T03:00:44.467Z,14.00
2017-12-28T03:03:10.226Z,15.10
2017-12-28T03:05:35.970Z,14.07
2017-12-28T03:08:01.712Z,15.87
2017-12-28T03:10:27.445Z,16.57
2017-12-28T03:12:53.179Z,17.27
2017-12-28T03:15:18.915Z,16.03
2017-12-28T03:17:44.660Z,16.13
2017-12-28T03:20:10.391Z,15.87
2017-12-28T03:22:36.163Z,16.57
2017-12-28T03:25:01.903Z,16.57
2017-12-28T03:27:27.686Z,15.87
2017-12-28T03:29:53.425Z,17.17
2017-12-28T03:32:19.174Z,17.57
2017-12-28T03:34:44.910Z,17.70
2017-12-28T03:37:10.642Z,17.23
2017-12-28T03:39:36.369Z,17.47
2017-12-28T03:42:02.098Z,17.37
2017-12-28T03:44:27.874Z,18.13
2017-12-28T03:46:53.628Z,18.30
2017-12-28T03:49:19.389Z,17.67
2017-12-28T03:51:45.126Z,17.93
2017-12-28T03:54:10.886Z,17.90
2017-12-28T03:56:36.630Z,18.40
2017-12-28T03:59:02.371Z,19.33
2017-12-28T04:01:28.106Z,18.40
2017-12-28T04:03:54.054Z,19.80
2017-12-28T04:06:19.784Z,19.77
2017-12-28T04:08:45.522Z,19.20
2017-12-28T04:11:11.270Z,18.00
2017-12-28T04:13:37.039Z,18.90
2017-12-28T04:16:02.790Z,19.07
2017-12-28T04:18:28.526Z,20.10
2017-12-28T04:20:54.270Z,18.93
2017-12-28T04:23:20.010Z,19.67
2017-12-28T04:25:45.775Z,19.73
2017-12-28T04:28:11.533Z,19.83
2017-12-28T04:30:37.286Z,20.10
2017-12-28T04:33:03.031Z,21.23
2017-12-28T04:35:28.777Z,21.57
2017-12-28T04:37:54.502Z,22.20
2017-12-28T04:40:20.237Z,21.53
2017-12-28T04:42:45.987Z,21.07
2017-12-28T04:45:11.763Z,20.40
2017-12-28T04:47:37.498Z,19.80
2017-12-28T04:50:03.263Z,19.37
2017-12-28T04:52:28.998Z,19.10
2017-12-28T04:54:54.750Z,12.83
2017-12-28T04:57:20.502Z,6.63
2017-12-28T04:59:46.237Z,4.07
2017-12-28T05:02:12.002Z,2.97
2017-12-28T05:04:37.745Z,2.53
2017-12-28T05:07:03.511Z,2.27
2017-12-28T05:09:29.266Z,2.80
2017-12-28T05:11:55.024Z,2.60
2017-12-28T05:14:20.770Z,2.20
2017-12-28T05:16:46.526Z,2.33
2017-12-28T05:19:12.273Z,2.10
2017-12-28T05:21:38.027Z,1.90
2017-12-28T05:24:03.782Z,1.70
2017-12-28T05:26:29.546Z,1.93
2017-12-28T05:28:55.282Z,1.63
2017-12-28T05:31:21.026Z,1.60
2017-12-28T05:33:46.776Z,1.50
2017-12-28T05:36:12.527Z,1.50
2017-12-28T05:38:38.274Z,1.40
2017-12-28T05:41:04.014Z,1.60
2017-12-28T05:43:29.770Z,1.60
2017-12-28T05:45:55.556Z,1.23
2017-12-28T05:48:21.302Z,1.40
2017-12-28T05:50:47.030Z,1.40
2017-12-28T05:53:12.786Z,1.63
2017-12-28T05:55:38.530Z,1.30
2017-12-28T05:58:04.271Z,1.30
2017-12-28T06:00:30.011Z,1.40
2017-12-28T06:02:55.755Z,1.40
2017-12-28T06:05:21.504Z,1.30
2017-12-28T06:07:47.261Z,1.30
2017-12-28T06:10:14.289Z,1.43
2017-12-28T06:12:40.095Z,1.60
2017-12-28T06:15:05.846Z,1.20
2017-12-28T06:17:31.594Z,1.40
2017-12-28T06:19:57.350Z,1.40
2017-12-28T06:22:23.087Z,1.30
2017-12-28T06:24:48.843Z,1.30
2017-12-28T06:27:14.598Z,1.30
2017-12-28T06:29:40.345Z,1.47
2017-12-28T06:32:06.095Z,1.50
2017-12-28T06:34:31.850Z,1.30
2017-12-28T06:36:57.582Z,1.50
2017-12-28T06:39:23.330Z,1.60
2017-12-28T06:41:49.079Z,1.40
2017-12-28T06:44:14.863Z,1.37
2017-12-28T06:46:40.594Z,2.53
2017-12-28T06:49:13.270Z,2.17
2017-12-28T06:51:39.015Z,1.73
2017-12-28T06:54:04.786Z,1.57
2017-12-28T06:56:30.526Z,1.90
2017-12-28T06:58:56.275Z,2.10
2017-12-28T07:01:22.043Z,2.00
2017-12-28T07:03:47.782Z,2.27
2017-12-28T07:06:13.528Z,2.20
2017-12-28T07:08:39.279Z,2.23
2017-12-28T07:11:05.034Z,2.30
2017-12-28T07:13:30.794Z,1.90
2017-12-28T07:15:56.549Z,2.50
2017-12-28T07:18:22.302Z,2.00
2017-12-28T07:20:48.060Z,2.27
2017-12-28T07:23:13.809Z,2.80
2017-12-28T07:25:39.562Z,2.60
2017-12-28T07:28:05.306Z,2.33
2017-12-28T07:30:31.061Z,2.23
2017-12-28T07:32:56.818Z,2.20
2017-12-28T07:35:22.572Z,2.57
2017-12-28T07:37:48.331Z,2.37
2017-12-28T07:40:14.071Z,1.90
2017-12-28T07:42:39.826Z,2.23
2017-12-28T07:45:05.594Z,1.97
2017-12-28T07:47:31.342Z,2.00
2017-12-28T07:49:57.091Z,2.50
2017-12-28T07:52:22.861Z,2.10
2017-12-28T07:54:48.611Z,2.20
2017-12-28T07:57:14.362Z,2.27
2017-12-28T07:59:40.122Z,2.53
2017-12-28T08:02:05.889Z,2.50
2017-12-28T08:04:31.629Z,2.30
2017-12-28T08:06:57.369Z,2.20
2017-12-28T08:09:23.111Z,1.93
2017-12-28T08:11:48.885Z,2.10
2017-12-28T08:14:14.627Z,1.97
2017-12-28T08:16:40.383Z,2.63
2017-12-28T08:19:06.120Z,2.17
2017-12-28T08:21:31.870Z,2.13
2017-12-28T08:23:57.631Z,2.90
2017-12-28T08:26:23.383Z,2.90
2017-12-28T08:28:49.134Z,3.57
2017-12-28T08:31:14.874Z,3.50
2017-12-28T08:33:40.638Z,3.27
2017-12-28T08:36:07.366Z,2.40
2017-12-28T08:38:33.118Z,2.80
2017-12-28T08:40:58.878Z,2.60
2017-12-28T08:43:24.622Z,2.33
2017-12-28T08:45:50.368Z,2.20
2017-12-28T08:48:16.130Z,2.30
2017-12-28T08:50:41.878Z,2.10
2017-12-28T08:53:07.641Z,2.30
2017-12-28T08:55:33.394Z,2.47
2017-12-28T08:57:59.146Z,2.73
2017-12-28T09:00:24.890Z,2.40
2017-12-28T09:02:50.634Z,2.93
2017-12-28T09:05:16.390Z,2.33
2017-12-28T09:07:42.131Z,2.40
2017-12-28T09:10:07.877Z,2.77
2017-12-28T09:12:33.630Z,2.43
2017-12-28T09:14:59.402Z,2.90
2017-12-28T09:17:25.143Z,2.53
2017-12-28T09:19:50.899Z,2.40
2017-12-28T09:22:16.649Z,2.20
2017-12-28T09:24:42.406Z,2.03
2017-12-28T09:27:08.159Z,2.60
2017-12-28T09:29:33.922Z,2.47
2017-12-28T09:31:59.686Z,3.17
2017-12-28T09:34:25.447Z,3.67
2017-12-28T09:36:51.203Z,3.30
2017-12-28T09:39:16.982Z,2.87
2017-12-28T09:41:42.725Z,2.60
2017-12-28T09:44:08.467Z,2.80
2017-12-28T09:46:34.215Z,3.00
2017-12-28T09:48:59.976Z,2.80
2017-12-28T09:51:25.751Z,2.60
2017-12-28T09:53:51.515Z,2.50
2017-12-28T09:56:17.287Z,2.60
2017-12-28T09:58:43.041Z,3.10
2017-12-28T10:01:08.811Z,3.67
2017-12-28T10:03:34.565Z,3.13
2017-12-28T10:06:00.331Z,3.13
2017-12-28T10:08:26.091Z,3.00
2017-12-28T10:10:51.870Z,2.87
2017-12-28T10:13:17.619Z,3.40
2017-12-28T10:15:43.415Z,3.60
2017-12-28T10:18:09.170Z,3.30
2017-12-28T10:20:34.926Z,3.40
2017-12-28T10:23:00.683Z,3.97
2017-12-28T10:25:26.446Z,3.60
2017-12-28T10:27:52.211Z,3.83
2017-12-28T10:30:17.966Z,3.70
2017-12-28T10:32:43.712Z,4.10
2017-12-28T10:35:09.455Z,3.63
2017-12-28T10:37:35.195Z,3.30
2017-12-28T10:40:00.951Z,2.77
2017-12-28T10:42:26.701Z,2.47
2017-12-28T10:44:52.459Z,3.07
2017-12-28T10:47:18.214Z,3.40
2017-12-28T10:49:43.962Z,2.83
2017-12-28T10:52:09.702Z,2.90
2017-12-28T10:54:35.451Z,2.87
2017-12-28T10:57:01.206Z,3.30
2017-12-28T10:59:26.946Z,2.90
2017-12-28T11:01:52.706Z,3.37
2017-12-28T11:04:18.466Z,4.93
2017-12-28T11:06:44.214Z,6.37
2017-12-28T11:09:09.961Z,5.13
2017-12-28T11:11:35.720Z,5.47
2017-12-28T11:14:01.474Z,4.13
2017-12-28T11:16:27.239Z,5.37
2017-12-28T11:18:52.986Z,3.60
2017-12-28T11:21:18.740Z,4.27
2017-12-28T11:23:44.502Z,3.47
2017-12-28T11:26:10.254Z,4.47
2017-12-28T11:28:36.018Z,4.07
2017-12-28T11:31:01.807Z,4.57
2017-12-28T11:33:27.558Z,4.03
2017-12-28T11:35:53.312Z,4.30
2017-12-28T11:38:19.059Z,4.17
2017-12-28T11:40:44.799Z,4.03
2017-12-28T11:43:10.559Z,4.37
2017-12-28T11:45:36.306Z,4.60
2017-12-28T11:48:02.071Z,4.03
2017-12-28T11:50:33.856Z,3.40
2017-12-28T11:53:05.709Z,3.42
2017-12-28T11:55:31.458Z,3.00
2017-12-28T11:57:57.215Z,4.03
2017-12-28T12:00:26.792Z,3.67
2017-12-28T12:05:52.307Z,3.87
2017-12-28T12:11:20.858Z,3.87
2017-12-28T12:13:46.618Z,3.57
2017-12-28T12:16:12.371Z,3.77
2017-12-28T12:18:38.115Z,4.17
2017-12-28T12:21:03.874Z,4.33
2017-12-28T12:23:29.624Z,4.33
2017-12-28T12:25:55.354Z,3.40
2017-12-28T12:28:21.102Z,3.50
2017-12-28T12:30:46.860Z,3.43
2017-12-28T12:33:12.623Z,3.70
2017-12-28T12:35:38.362Z,3.53
2017-12-28T12:38:04.150Z,3.70
2017-12-28T12:40:29.910Z,2.90
2017-12-28T12:42:55.654Z,3.07
2017-12-28T12:45:21.434Z,3.43
2017-12-28T12:47:47.166Z,3.47
2017-12-28T12:50:12.917Z,3.60
2017-12-28T12:52:38.655Z,3.60
2017-12-28T12:55:04.419Z,3.10
2017-12-28T12:57:30.181Z,3.37
2017-12-28T12:59:55.933Z,3.50
2017-12-28T13:02:21.666Z,3.30
2017-12-28T13:04:47.448Z,3.17
2017-12-28T13:07:13.190Z,3.27
2017-12-28T13:09:38.945Z,3.57
2017-12-28T13:12:04.699Z,3.57
2017-12-28T13:14:30.442Z,2.83
2017-12-28T13:16:56.215Z,3.33
2017-12-28T13:19:21.959Z,3.40
2017-12-28T13:21:47.718Z,2.90
2017-12-28T13:24:13.472Z,3.23
2017-12-28T13:26:39.231Z,3.23
2017-12-28T13:29:04.982Z,3.60
2017-12-28T13:31:30.744Z,2.93
2017-12-28T13:33:56.499Z,3.53
2017-12-28T13:36:22.261Z,3.40
2017-12-28T13:38:48.005Z,3.10
2017-12-28T13:41:13.778Z,3.23
2017-12-28T13:43:39.525Z,3.07
2017-12-28T13:46:05.296Z,3.60
2017-12-28T13:48:31.067Z,2.97
2017-12-28T13:50:56.833Z,3.53
2017-12-28T13:53:22.603Z,2.77
2017-12-28T13:55:48.354Z,2.60
2017-12-28T13:58:14.117Z,2.80
2017-12-28T14:00:39.887Z,3.00
2017-12-28T14:03:05.672Z,2.43
2017-12-28T14:05:31.423Z,2.40
2017-12-28T14:07:57.188Z,3.07
2017-12-28T14:10:22.939Z,2.67
2017-12-28T14:12:48.696Z,2.73
2017-12-28T14:15:14.458Z,3.27
2017-12-28T14:17:40.222Z,2.87
2017-12-28T14:20:05.958Z,2.80
2017-12-28T14:22:31.712Z,2.53
2017-12-28T14:24:57.470Z,3.10
2017-12-28T14:27:23.227Z,2.70
2017-12-28T14:29:48.975Z,2.70
2017-12-28T14:32:14.714Z,2.70
2017-12-28T14:34:40.470Z,2.43
2017-12-28T14:37:06.225Z,2.43
2017-12-28T14:39:31.986Z,2.20
2017-12-28T14:41:57.748Z,2.30
2017-12-28T14:44:23.512Z,2.70
2017-12-28T14:46:49.271Z,2.27
2017-12-28T14:49:15.037Z,2.43
2017-12-28T14:51:40.791Z,2.30
2017-12-28T14:54:06.571Z,1.97
2017-12-28T14:56:32.331Z,1.80
2017-12-28T14:58:58.101Z,2.07
2017-12-28T15:01:23.853Z,1.90
2017-12-28T15:03:49.632Z,2.40
2017-12-28T15:06:15.388Z,2.00
2017-12-28T15:08:41.159Z,2.00
2017-12-28T15:11:06.931Z,2.13
2017-12-28T15:13:32.691Z,2.13
2017-12-28T15:15:58.450Z,2.13
2017-12-28T15:18:24.202Z,3.53
2017-12-28T15:20:49.976Z,3.40
2017-12-28T15:23:15.723Z,1.70
2017-12-28T15:25:41.462Z,2.07
2017-12-28T15:28:07.210Z,2.20
2017-12-28T15:30:32.975Z,2.20
2017-12-28T15:32:58.723Z,2.00
2017-12-28T15:35:24.482Z,2.13
2017-12-28T15:37:50.230Z,1.60
2017-12-28T15:40:15.982Z,2.13
2017-12-28T15:42:41.727Z,2.10
2017-12-28T15:45:07.523Z,2.00
2017-12-28T15:47:33.263Z,2.23
2017-12-28T15:49:59.011Z,1.90
2017-12-28T15:52:24.751Z,2.00
2017-12-28T15:54:50.495Z,2.40
2017-12-28T15:57:16.321Z,2.40
2017-12-28T15:59:42.055Z,2.53
2017-12-28T16:02:07.814Z,2.83
2017-12-28T16:04:33.551Z,2.50
2017-12-28T16:06:59.306Z,2.73
2017-12-28T16:09:25.066Z,3.20
2017-12-28T16:11:50.810Z,3.20
2017-12-28T16:14:16.559Z,3.20
2017-12-28T16:16:42.315Z,3.50
2017-12-28T16:19:08.078Z,3.43
2017-12-28T16:21:33.834Z,3.30
2017-12-28T16:23:59.593Z,3.90
2017-12-28T16:26:25.347Z,3.93
2017-12-28T16:28:51.102Z,4.03
2017-12-28T16:31:16.855Z,3.97
2017-12-28T16:33:42.599Z,3.27
2017-12-28T16:36:08.343Z,3.97
2017-12-28T16:38:34.091Z,3.77
2017-12-28T16:40:59.824Z,3.73
2017-12-28T16:43:25.577Z,3.47
2017-12-28T16:45:51.322Z,3.50
2017-12-28T16:48:17.099Z,3.60
2017-12-28T16:50:42.841Z,3.23
2017-12-28T16:53:08.627Z,3.50
2017-12-28T16:55:34.366Z,4.07
2017-12-28T16:58:00.112Z,3.70
2017-12-28T17:00:25.870Z,3.50
2017-12-28T17:02:51.626Z,4.03
2017-12-28T17:05:17.382Z,4.23
2017-12-28T17:07:43.127Z,3.97
2017-12-28T17:10:08.892Z,4.23
2017-12-28T17:12:35.542Z,4.53
2017-12-28T17:15:01.295Z,3.95
2017-12-28T17:17:27.050Z,4.53
2017-12-28T17:19:52.822Z,4.50
2017-12-28T17:22:18.567Z,4.83
2017-12-28T17:24:44.311Z,5.10
2017-12-28T17:27:10.075Z,5.70
2017-12-28T17:29:35.836Z,5.60
2017-12-28T17:32:01.584Z,5.40
2017-12-28T17:34:27.331Z,5.00
2017-12-28T17:36:53.070Z,5.60
2017-12-28T17:39:18.809Z,4.90
2017-12-28T17:41:44.554Z,4.50
2017-12-28T17:44:10.279Z,4.17
2017-12-28T17:46:36.043Z,3.90
2017-12-28T17:49:01.815Z,4.73
2017-12-28T17:51:27.579Z,5.53
2017-12-28T17:53:53.335Z,4.80
2017-12-28T17:56:19.086Z,5.57
2017-12-28T17:58:44.842Z,5.40
2017-12-28T18:01:10.618Z,6.53
2017-12-28T18:03:36.359Z,6.90
2017-12-28T18:06:02.107Z,7.93
2017-12-28T18:08:28.010Z,6.47
2017-12-28T18:10:53.758Z,5.67
2017-12-28T18:13:19.527Z,5.60
2017-12-28T18:15:45.278Z,5.17
2017-12-28T18:18:11.030Z,6.17
2017-12-28T18:20:36.768Z,6.40
2017-12-28T18:23:02.535Z,6.30
2017-12-28T18:25:28.285Z,5.23
2017-12-28T18:27:54.070Z,5.43
2017-12-28T18:30:19.846Z,5.23
2017-12-28T18:32:45.598Z,5.23
2017-12-28T18:35:11.338Z,4.50
2017-12-28T18:37:37.089Z,4.80
2017-12-28T18:40:02.855Z,5.10
2017-12-28T18:42:28.631Z,4.70
2017-12-28T18:44:54.397Z,5.10
2017-12-28T18:47:20.165Z,4.37
2017-12-28T18:49:45.917Z,4.07
2017-12-28T18:52:11.686Z,4.60
2017-12-28T18:54:37.437Z,3.97
2017-12-28T18:57:03.203Z,4.43
2017-12-28T18:59:28.963Z,3.93
2017-12-28T19:01:54.715Z,4.50
2017-12-28T19:04:20.478Z,3.90
2017-12-28T19:06:46.218Z,3.90
2017-12-28T19:09:11.978Z,3.27
2017-12-28T19:11:37.730Z,3.87
2017-12-28T19:14:03.487Z,3.90
2017-12-28T19:16:29.227Z,3.17
2017-12-28T19:18:55.215Z,3.47
2017-12-28T19:21:20.963Z,3.35
2017-12-28T19:23:46.704Z,3.43
2017-12-28T19:26:12.462Z,3.80
2017-12-28T19:28:38.201Z,5.00
2017-12-28T19:31:03.958Z,4.77
2017-12-28T19:33:29.714Z,4.97
2017-12-28T19:35:55.468Z,5.53
2017-12-28T19:38:21.206Z,4.17
2017-12-28T19:40:46.953Z,4.13
2017-12-28T19:43:12.699Z,3.60
2017-12-28T19:45:38.482Z,3.83
2017-12-28T19:48:04.231Z,4.70
2017-12-28T19:50:29.974Z,4.57
2017-12-28T19:52:55.722Z,4.43
2017-12-28T19:55:21.487Z,4.40
2017-12-28T19:57:47.238Z,4.20
2017-12-28T20:00:12.991Z,4.20
2017-12-28T20:02:38.755Z,3.77
2017-12-28T20:05:04.504Z,3.70
2017-12-28T20:07:30.274Z,3.30
2017-12-28T20:09:56.023Z,3.80
2017-12-28T20:12:21.779Z,3.77
2017-12-28T20:14:47.529Z,4.00
2017-12-28T20:17:13.278Z,4.27
2017-12-28T20:19:39.040Z,4.30
2017-12-28T20:22:04.820Z,4.03
2017-12-28T20:24:30.559Z,4.20
2017-12-28T20:26:56.299Z,3.70
2017-12-28T20:29:22.046Z,3.43
2017-12-28T20:31:47.798Z,2.53
2017-12-28T20:34:13.564Z,2.00
2017-12-28T20:36:39.310Z,2.43
2017-12-28T20:39:05.066Z,2.70
2017-12-28T20:41:30.803Z,2.90
2017-12-28T20:43:56.555Z,3.03
2017-12-28T20:46:22.315Z,2.97
2017-12-28T20:48:48.071Z,3.50
2017-12-28T20:51:13.828Z,3.60
2017-12-28T20:53:39.586Z,3.73
2017-12-28T20:56:05.338Z,3.53
2017-12-28T20:58:31.099Z,4.57
2017-12-28T21:00:56.835Z,4.13
2017-12-28T21:03:22.590Z,4.40
2017-12-28T21:05:48.334Z,5.17
2017-12-28T21:08:14.087Z,4.57
2017-12-28T21:10:39.843Z,4.77
2017-12-28T21:13:05.604Z,5.63
2017-12-28T21:15:31.359Z,4.43
2017-12-28T21:17:57.102Z,3.90
2017-12-28T21:20:22.879Z,3.30
2017-12-28T21:22:48.627Z,3.37
2017-12-28T21:25:14.394Z,3.90
2017-12-28T21:27:40.133Z,4.10
2017-12-28T21:30:05.931Z,4.43
2017-12-28T21:32:31.671Z,5.47
2017-12-28T21:34:57.417Z,5.17
2017-12-28T21:37:23.170Z,5.33
2017-12-28T21:39:48.934Z,5.63
2017-12-28T21:42:14.695Z,6.00
2017-12-28T21:44:40.447Z,6.47
2017-12-28T21:47:06.264Z,5.00
2017-12-28T21:49:32.023Z,5.53
2017-12-28T21:51:57.791Z,5.03
2017-12-28T21:54:23.532Z,5.23
2017-12-28T21:56:49.279Z,4.53
2017-12-28T21:59:15.023Z,4.70
2017-12-28T22:01:40.776Z,5.03
2017-12-28T22:04:06.555Z,4.43
2017-12-28T22:06:32.315Z,5.37
2017-12-28T22:08:58.066Z,5.10
2017-12-28T22:11:23.830Z,5.50
2017-12-28T22:13:49.578Z,5.73
2017-12-28T22:16:15.326Z,4.87
2017-12-28T22:18:41.103Z,5.97
2017-12-28T22:21:06.862Z,5.90
2017-12-28T22:23:32.616Z,6.00
2017-12-28T22:25:58.374Z,5.47
2017-12-28T22:28:24.134Z,5.73
2017-12-28T22:30:49.886Z,5.57
2017-12-28T22:33:15.634Z,5.43
2017-12-28T22:35:41.378Z,5.53
2017-12-28T22:38:07.154Z,5.20
2017-12-28T22:40:32.895Z,5.20
2017-12-28T22:42:58.664Z,5.63
2017-12-28T22:45:24.418Z,5.20
2017-12-28T22:47:50.195Z,5.20
2017-12-28T22:50:16.618Z,6.07
2017-12-28T22:52:42.363Z,5.43
2017-12-28T22:55:08.627Z,4.70
2017-12-28T22:57:34.370Z,4.70
2017-12-28T23:00:00.121Z,4.73
2017-12-28T23:02:25.875Z,4.80
2017-12-28T23:04:51.643Z,4.37
2017-12-28T23:07:17.382Z,4.30
2017-12-28T23:09:43.130Z,4.20
2017-12-28T23:12:08.879Z,4.40
2017-12-28T23:14:34.650Z,4.93
2017-12-28T23:17:00.394Z,4.00
2017-12-28T23:19:26.155Z,3.70
2017-12-28T23:21:51.923Z,4.00
2017-12-28T23:24:17.679Z,3.67
2017-12-28T23:26:43.481Z,4.20
2017-12-28T23:29:09.220Z,4.30
2017-12-28T23:31:34.969Z,3.97
2017-12-28T23:34:00.713Z,3.73
2017-12-28T23:36:26.486Z,3.87
2017-12-28T23:38:52.239Z,4.73
2017-12-28T23:41:18.007Z,4.80
2017-12-28T23:43:43.742Z,4.43
2017-12-28T23:46:09.511Z,4.33
2017-12-28T23:48:35.252Z,4.77
2017-12-28T23:51:01.043Z,4.20
2017-12-28T23:53:26.805Z,4.23
2017-12-28T23:55:52.554Z,4.20
2017-12-28T23:58:18.318Z,4.30
